createdAt,value
2018-04-15T00:02:17.112Z,58.30
2018-04-15T00:04:43.008Z,61.83
2018-04-15T00:07:09.009Z,60.80
2018-04-15T00:09:34.930Z,62.83
2018-04-15T00:12:01.012Z,43.07
2018-04-15T00:14:26.928Z,47.13
2018-04-15T00:16:52.827Z,46.93
2018-04-15T00:19:18.813Z,50.10
2018-04-15T00:21:44.804Z,47.07
2018-04-15T00:24:10.688Z,50.57
2018-04-15T00:26:36.560Z,53.90
2018-04-15T00:29:02.642Z,56.23
2018-04-15T00:31:28.610Z,55.70
2018-04-15T00:33:54.568Z,51.73
2018-04-15T00:36:20.522Z,45.50
2018-04-15T00:38:46.376Z,46.57
2018-04-15T00:41:12.272Z,43.90
2018-04-15T00:43:38.260Z,52.77
2018-04-15T00:46:04.221Z,55.87
2018-04-15T00:48:30.101Z,55.07
2018-04-15T00:50:56.044Z,48.07
2018-04-15T00:53:21.977Z,48.03
2018-04-15T00:55:47.997Z,53.87
2018-04-15T00:58:13.965Z,42.17
2018-04-15T01:00:39.831Z,45.10
2018-04-15T01:03:05.727Z,50.30
2018-04-15T01:05:31.638Z,50.33
2018-04-15T01:07:57.615Z,44.10
2018-04-15T01:10:23.553Z,44.60
2018-04-15T01:12:49.923Z,46.57
2018-04-15T01:15:15.848Z,52.20
2018-04-15T01:17:41.760Z,58.53
2018-04-15T01:20:07.780Z,65.67
2018-04-15T01:22:33.735Z,55.20
2018-04-15T01:24:59.591Z,66.17
2018-04-15T01:27:25.662Z,64.87
2018-04-15T01:29:51.625Z,53.27
2018-04-15T01:32:17.611Z,49.13
2018-04-15T01:34:43.579Z,51.77
2018-04-15T01:37:09.442Z,51.93
2018-04-15T01:39:35.334Z,51.93
2018-04-15T01:42:01.281Z,70.03
2018-04-15T01:44:27.232Z,56.10
2018-04-15T01:46:53.151Z,55.47
2018-04-15T01:49:19.094Z,64.17
2018-04-15T01:51:44.989Z,59.97
2018-04-15T01:54:10.866Z,63.93
2018-04-15T01:56:36.865Z,65.60
2018-04-15T01:59:02.830Z,71.77
2018-04-15T02:01:28.701Z,62.07
2018-04-15T02:03:54.648Z,62.60
2018-04-15T02:06:20.516Z,67.80
2018-04-15T02:08:46.467Z,66.17
2018-04-15T02:11:12.829Z,70.27
2018-04-15T02:13:38.704Z,65.07
2018-04-15T02:16:05.268Z,60.27
2018-04-15T02:18:31.211Z,66.23
2018-04-15T02:20:57.191Z,66.07
2018-04-15T02:23:23.106Z,64.97
2018-04-15T02:25:49.016Z,63.70
2018-04-15T02:28:14.885Z,61.00
2018-04-15T02:30:40.823Z,67.90
2018-04-15T02:33:06.857Z,59.17
2018-04-15T02:35:32.788Z,82.63
2018-04-15T02:37:58.659Z,86.23
2018-04-15T02:40:24.574Z,87.60
2018-04-15T02:42:50.481Z,82.97
2018-04-15T02:45:16.456Z,72.77
2018-04-15T02:47:42.429Z,71.90
2018-04-15T02:50:08.338Z,72.63
2018-04-15T02:52:34.292Z,71.73
2018-04-15T02:55:00.286Z,77.63
2018-04-15T02:57:26.248Z,76.47
2018-04-15T02:59:52.216Z,75.23
2018-04-15T03:02:18.132Z,81.50
2018-04-15T03:04:44.069Z,67.50
2018-04-15T03:07:09.964Z,72.83
2018-04-15T03:09:36.302Z,79.90
2018-04-15T03:12:02.245Z,66.73
2018-04-15T03:14:28.139Z,70.90
2018-04-15T03:16:54.083Z,73.17
2018-04-15T03:19:19.964Z,69.43
2018-04-15T03:21:45.936Z,63.47
2018-04-15T03:24:11.902Z,60.90
2018-04-15T03:26:37.780Z,61.57
2018-04-15T03:29:03.699Z,60.67
2018-04-15T03:31:29.628Z,66.40
2018-04-15T03:33:55.964Z,68.40
2018-04-15T03:36:21.891Z,59.77
2018-04-15T03:38:47.804Z,63.60
2018-04-15T03:41:13.710Z,58.73
2018-04-15T03:43:39.587Z,62.43
2018-04-15T03:46:05.600Z,58.97
2018-04-15T03:48:31.531Z,60.87
2018-04-15T03:50:58.451Z,61.93
2018-04-15T03:53:24.363Z,52.73
2018-04-15T03:55:50.232Z,48.00
2018-04-15T03:58:16.179Z,48.80
2018-04-15T04:00:42.233Z,52.17
2018-04-15T04:03:08.116Z,48.30
2018-04-15T04:05:33.984Z,55.90
2018-04-15T04:08:00.510Z,53.40
2018-04-15T04:10:26.483Z,50.60
2018-04-15T04:12:52.443Z,52.20
2018-04-15T04:15:19.606Z,53.50
2018-04-15T04:17:57.747Z,53.80
2018-04-15T04:20:36.762Z,57.63
2018-04-15T04:23:15.752Z,57.90
2018-04-15T04:25:53.855Z,55.63
2018-04-15T04:28:19.719Z,57.67
2018-04-15T04:30:45.673Z,59.87
2018-04-15T04:33:11.565Z,65.63
2018-04-15T04:35:37.499Z,51.83
2018-04-15T04:38:03.421Z,61.80
2018-04-15T04:40:29.343Z,54.90
2018-04-15T04:42:55.328Z,54.97
2018-04-15T04:45:21.202Z,51.17
2018-04-15T04:47:47.466Z,56.47
2018-04-15T04:50:13.319Z,52.93
2018-04-15T04:52:39.195Z,50.97
2018-04-15T04:55:06.224Z,59.03
2018-04-15T04:57:32.101Z,58.97
2018-04-15T04:59:58.073Z,55.83
2018-04-15T05:02:23.990Z,47.00
2018-04-15T05:04:49.885Z,54.17
2018-04-15T05:07:15.859Z,56.67
2018-04-15T05:09:41.804Z,56.90
2018-04-15T05:12:07.723Z,57.93
2018-04-15T05:14:33.639Z,55.27
2018-04-15T05:16:59.570Z,55.37
2018-04-15T05:19:25.579Z,55.77
2018-04-15T05:21:51.508Z,59.77
2018-04-15T05:24:17.504Z,62.93
2018-04-15T05:26:43.420Z,62.80
2018-04-15T05:29:09.278Z,64.17
2018-04-15T05:31:35.359Z,64.43
2018-04-15T05:34:01.256Z,65.13
2018-04-15T05:36:27.243Z,64.10
2018-04-15T05:38:53.192Z,62.57
2018-04-15T05:41:19.109Z,67.77
2018-04-15T05:43:45.084Z,64.57
2018-04-15T05:46:11.352Z,67.53
2018-04-15T05:48:37.325Z,64.57
2018-04-15T05:51:03.216Z,63.87
2018-04-15T05:53:29.192Z,62.80
2018-04-15T05:55:55.143Z,59.23
2018-04-15T05:58:22.980Z,61.00
2018-04-15T06:00:48.968Z,64.60
2018-04-15T06:03:14.838Z,67.87
2018-04-15T06:05:40.735Z,69.87
2018-04-15T06:08:06.832Z,66.87
2018-04-15T06:10:32.704Z,61.20
2018-04-15T06:12:58.731Z,58.93
2018-04-15T06:15:24.952Z,57.97
2018-04-15T06:17:50.917Z,52.70
2018-04-15T06:20:16.871Z,53.43
2018-04-15T06:22:42.781Z,55.83
2018-04-15T06:25:08.701Z,54.93
2018-04-15T06:27:34.571Z,54.20
2018-04-15T06:30:00.785Z,55.53
2018-04-15T06:32:26.815Z,50.27
2018-04-15T06:34:52.708Z,53.13
2018-04-15T06:37:18.690Z,49.23
2018-04-15T06:39:44.669Z,48.27
2018-04-15T06:42:10.588Z,44.63
2018-04-15T06:44:36.584Z,46.63
2018-04-15T06:47:02.472Z,39.67
2018-04-15T06:49:28.564Z,40.87
2018-04-15T06:51:54.512Z,40.80
2018-04-15T06:54:20.379Z,42.17
2018-04-15T06:56:46.332Z,45.57
2018-04-15T06:59:12.249Z,38.00
2018-04-15T07:01:38.243Z,33.50
2018-04-15T07:04:04.124Z,32.63
2018-04-15T07:06:30.128Z,30.57
2018-04-15T07:08:56.376Z,27.90
2018-04-15T07:11:22.288Z,27.20
2018-04-15T07:13:48.395Z,26.47
2018-04-15T07:16:14.279Z,24.83
2018-04-15T07:18:40.175Z,24.93
2018-04-15T07:21:06.193Z,24.30
2018-04-15T07:23:32.063Z,22.60
2018-04-15T07:25:58.003Z,21.73
2018-04-15T07:28:23.911Z,23.43
2018-04-15T07:30:49.775Z,22.20
2018-04-15T07:33:15.730Z,24.17
2018-04-15T07:35:41.777Z,21.23
2018-04-15T07:38:07.845Z,19.20
2018-04-15T07:40:33.711Z,18.53
2018-04-15T07:42:59.634Z,20.67
2018-04-15T07:45:25.595Z,18.47
2018-04-15T07:47:51.467Z,18.40
2018-04-15T07:50:17.523Z,17.20
2018-04-15T07:52:43.428Z,16.87
2018-04-15T07:55:09.355Z,16.23
2018-04-15T07:57:36.202Z,17.10
2018-04-15T08:00:02.170Z,17.27
2018-04-15T08:02:28.152Z,15.10
2018-04-15T08:04:54.104Z,13.80
2018-04-15T08:07:21.136Z,14.83
2018-04-15T08:09:47.095Z,14.13
2018-04-15T08:12:13.035Z,14.90
2018-04-15T08:14:38.964Z,13.90
2018-04-15T08:17:04.840Z,14.23
2018-04-15T08:19:30.788Z,13.47
2018-04-15T08:21:56.785Z,13.67
2018-04-15T08:24:22.712Z,14.23
2018-04-15T08:26:48.668Z,13.83
2018-04-15T08:29:14.579Z,13.90
2018-04-15T08:31:40.481Z,12.23
2018-04-15T08:34:06.502Z,13.23
2018-04-15T08:36:32.917Z,12.77
2018-04-15T08:38:58.856Z,13.10
2018-04-15T08:41:24.814Z,12.87
2018-04-15T08:43:50.691Z,12.03
2018-04-15T08:46:16.704Z,13.47
2018-04-15T08:48:42.627Z,12.43
2018-04-15T08:51:08.547Z,11.70
2018-04-15T08:53:34.423Z,10.67
2018-04-15T08:56:00.315Z,11.30
2018-04-15T08:58:26.271Z,10.33
2018-04-15T09:00:52.160Z,10.98
2018-04-15T09:03:18.175Z,10.33
2018-04-15T09:05:44.059Z,9.17
2018-04-15T09:08:09.919Z,9.20
2018-04-15T09:10:35.930Z,9.33
2018-04-15T09:13:01.835Z,8.70
2018-04-15T09:15:27.776Z,7.97
2018-04-15T09:17:53.718Z,7.40
2018-04-15T09:20:19.616Z,8.10
2018-04-15T09:22:45.600Z,7.37
2018-04-15T09:25:11.508Z,6.43
2018-04-15T09:27:37.436Z,6.77
2018-04-15T09:30:03.354Z,6.63
2018-04-15T09:32:29.247Z,7.70
2018-04-15T09:34:55.211Z,6.87
2018-04-15T09:37:21.089Z,6.33
2018-04-15T09:39:48.081Z,5.93
2018-04-15T09:42:14.970Z,6.27
2018-04-15T09:44:40.887Z,6.47
2018-04-15T09:47:06.934Z,6.70
2018-04-15T09:49:32.812Z,6.53
2018-04-15T09:51:58.749Z,6.00
2018-04-15T09:54:24.665Z,6.47
2018-04-15T09:56:50.541Z,5.50
2018-04-15T09:59:16.592Z,5.60
2018-04-15T10:01:42.461Z,6.00
2018-04-15T10:04:08.410Z,5.53
2018-04-15T10:06:34.271Z,5.23
2018-04-15T10:09:00.174Z,5.37
2018-04-15T10:11:26.141Z,5.20
2018-04-15T10:13:52.019Z,5.40
2018-04-15T10:16:17.990Z,5.20
2018-04-15T10:18:43.893Z,4.67
2018-04-15T10:21:09.759Z,4.87
2018-04-15T10:23:35.791Z,4.73
2018-04-15T10:26:01.717Z,4.73
2018-04-15T10:28:27.635Z,4.43
2018-04-15T10:30:53.681Z,4.00
2018-04-15T10:33:19.561Z,4.10
2018-04-15T10:35:45.552Z,4.60
2018-04-15T10:38:11.475Z,3.97
2018-04-15T10:40:37.405Z,4.17
2018-04-15T10:43:03.330Z,4.43
2018-04-15T10:45:29.239Z,4.17
2018-04-15T10:47:55.202Z,3.90
2018-04-15T10:50:21.072Z,4.13
2018-04-15T10:52:47.048Z,4.20
2018-04-15T10:55:12.924Z,3.60
2018-04-15T10:57:38.804Z,3.37
2018-04-15T11:00:04.801Z,3.33
2018-04-15T11:02:30.667Z,3.40
2018-04-15T11:04:56.587Z,3.30
2018-04-15T11:07:23.268Z,3.83
2018-04-15T11:09:49.140Z,3.47
2018-04-15T11:12:15.125Z,3.17
2018-04-15T11:14:41.044Z,3.13
2018-04-15T11:17:08.105Z,3.40
2018-04-15T11:19:33.996Z,3.20
2018-04-15T11:21:59.962Z,3.00
2018-04-15T11:24:26.406Z,3.23
2018-04-15T11:26:52.262Z,3.53
2018-04-15T11:29:18.241Z,2.63
2018-04-15T11:31:44.588Z,2.80
2018-04-15T11:34:10.520Z,2.80
2018-04-15T11:36:36.568Z,2.80
2018-04-15T11:39:02.461Z,2.70
2018-04-15T11:41:28.387Z,3.03
2018-04-15T11:43:54.330Z,2.60
2018-04-15T11:46:20.291Z,2.37
2018-04-15T11:48:46.260Z,2.93
2018-04-15T11:51:12.184Z,2.90
2018-04-15T11:53:38.131Z,2.50
2018-04-15T11:56:04.015Z,3.10
2018-04-15T11:58:30.017Z,2.70
2018-04-15T12:00:56.060Z,2.57
2018-04-15T12:03:21.953Z,2.80
2018-04-15T12:05:47.943Z,2.60
2018-04-15T12:08:13.812Z,2.83
2018-04-15T12:10:39.819Z,2.70
2018-04-15T12:13:06.019Z,2.60
2018-04-15T12:15:31.908Z,2.77
2018-04-15T12:17:57.855Z,2.37
2018-04-15T12:20:23.831Z,2.97
2018-04-15T12:22:49.724Z,2.50
2018-04-15T12:25:15.733Z,2.33
2018-04-15T12:27:41.662Z,2.80
2018-04-15T12:30:08.607Z,2.67
2018-04-15T12:32:34.495Z,2.93
2018-04-15T12:35:00.529Z,2.50
2018-04-15T12:37:26.491Z,2.40
2018-04-15T12:39:52.380Z,2.23
2018-04-15T12:42:18.381Z,2.40
2018-04-15T12:44:44.236Z,2.53
2018-04-15T12:47:10.111Z,2.50
2018-04-15T12:49:36.200Z,2.40
2018-04-15T12:52:02.142Z,2.67
2018-04-15T12:54:28.075Z,2.43
2018-04-15T12:56:54.008Z,2.60
2018-04-15T12:59:19.897Z,2.73
2018-04-15T13:01:45.868Z,2.23
2018-04-15T13:04:11.800Z,2.20
2018-04-15T13:06:38.960Z,2.37
2018-04-15T13:09:04.851Z,2.20
2018-04-15T13:11:30.824Z,2.47
2018-04-15T13:13:56.791Z,2.03
2018-04-15T13:16:22.690Z,2.33
2018-04-15T13:18:48.820Z,2.27
2018-04-15T13:21:14.698Z,2.30
2018-04-15T13:23:40.595Z,2.03
2018-04-15T13:26:06.646Z,1.90
2018-04-15T13:28:32.609Z,1.90
2018-04-15T13:30:58.561Z,2.23
2018-04-15T13:33:24.491Z,2.50
2018-04-15T13:35:51.387Z,2.70
2018-04-15T13:38:17.369Z,2.30
2018-04-15T13:40:43.302Z,2.10
2018-04-15T13:43:09.672Z,2.37
2018-04-15T13:45:35.529Z,2.13
2018-04-15T13:48:01.464Z,2.50
2018-04-15T13:50:27.462Z,2.43
2018-04-15T13:52:53.337Z,2.23
2018-04-15T13:55:19.321Z,2.20
2018-04-15T13:57:45.196Z,2.10
2018-04-15T14:00:11.096Z,2.47
2018-04-15T14:02:37.120Z,2.55
2018-04-15T14:05:02.976Z,2.40
2018-04-15T14:07:28.906Z,11.50
2018-04-15T14:09:54.811Z,3.43
2018-04-15T14:12:20.681Z,10.43
2018-04-15T14:14:46.688Z,4.53
2018-04-15T14:17:12.614Z,3.00
2018-04-15T14:19:38.571Z,6.63
2018-04-15T14:22:04.452Z,2.30
2018-04-15T14:24:30.376Z,9.23
2018-04-15T14:26:56.344Z,3.30
2018-04-15T14:29:22.229Z,2.60
2018-04-15T14:31:48.205Z,2.50
2018-04-15T14:34:14.103Z,2.70
2018-04-15T14:36:39.963Z,2.30
2018-04-15T14:39:06.833Z,2.70
2018-04-15T14:41:32.713Z,2.43
2018-04-15T14:43:58.627Z,2.37
2018-04-15T14:46:24.579Z,2.20
2018-04-15T14:48:50.431Z,2.57
2018-04-15T14:51:16.371Z,2.60
2018-04-15T14:53:42.322Z,2.60
2018-04-15T14:56:08.244Z,2.37
2018-04-15T14:58:34.137Z,2.20
2018-04-15T15:01:00.051Z,2.40
2018-04-15T15:03:26.036Z,2.70
2018-04-15T15:05:51.983Z,2.63
2018-04-15T15:08:17.945Z,2.67
2018-04-15T15:10:43.907Z,2.60
2018-04-15T15:13:09.832Z,2.63
2018-04-15T15:15:35.832Z,2.70
2018-04-15T15:18:01.688Z,2.73
2018-04-15T15:20:27.716Z,2.30
2018-04-15T15:22:53.807Z,3.00
2018-04-15T15:25:19.720Z,2.60
2018-04-15T15:27:47.887Z,2.50
2018-04-15T15:30:14.042Z,2.70
2018-04-15T15:32:40.049Z,3.00
2018-04-15T15:35:05.911Z,2.70
2018-04-15T15:37:31.836Z,2.63
2018-04-15T15:39:58.026Z,2.20
2018-04-15T15:42:23.954Z,2.70
2018-04-15T15:44:51.029Z,2.60
2018-04-15T15:47:16.916Z,2.60
2018-04-15T15:49:42.814Z,2.67
2018-04-15T15:52:08.841Z,3.47
2018-04-15T15:54:34.729Z,2.90
2018-04-15T15:57:00.666Z,2.60
2018-04-15T15:59:26.600Z,2.70
2018-04-15T16:01:52.483Z,2.60
2018-04-15T16:04:18.441Z,3.00
2018-04-15T16:06:44.369Z,2.90
2018-04-15T16:09:10.324Z,2.87
2018-04-15T16:11:36.179Z,2.70
2018-04-15T16:14:02.138Z,3.00
2018-04-15T16:16:28.100Z,2.90
2018-04-15T16:18:53.980Z,2.70
2018-04-15T16:21:19.960Z,3.20
2018-04-15T16:23:45.894Z,3.30
2018-04-15T16:26:11.761Z,3.47
2018-04-15T16:28:37.764Z,2.57
2018-04-15T16:31:03.648Z,2.70
2018-04-15T16:33:29.567Z,2.77
2018-04-15T16:35:55.497Z,2.70
2018-04-15T16:38:22.594Z,2.90
2018-04-15T16:40:48.685Z,2.80
2018-04-15T16:43:14.631Z,3.37
2018-04-15T16:45:40.599Z,3.50
2018-04-15T16:48:06.489Z,3.00
2018-04-15T16:50:32.797Z,3.30
2018-04-15T16:52:58.748Z,2.70
2018-04-15T16:55:24.612Z,2.80
2018-04-15T16:57:50.596Z,2.80
2018-04-15T17:00:16.487Z,2.83
2018-04-15T17:02:42.364Z,3.37
2018-04-15T17:05:08.715Z,2.93
2018-04-15T17:07:34.584Z,4.10
2018-04-15T17:10:00.509Z,3.60
2018-04-15T17:12:26.438Z,4.17
2018-04-15T17:14:52.337Z,4.83
2018-04-15T17:17:18.293Z,4.70
2018-04-15T17:19:44.214Z,4.30
2018-04-15T17:22:10.222Z,4.67
2018-04-15T17:24:36.082Z,5.13
2018-04-15T17:27:01.988Z,5.77
2018-04-15T17:29:27.974Z,4.90
2018-04-15T17:31:54.015Z,6.60
2018-04-15T17:34:21.299Z,5.70
2018-04-15T17:36:47.256Z,6.40
2018-04-15T17:39:13.136Z,6.70
2018-04-15T17:41:39.308Z,8.00
2018-04-15T17:44:05.176Z,8.43
2018-04-15T17:46:31.132Z,7.20
2018-04-15T17:48:57.057Z,6.50
2018-04-15T17:51:22.925Z,6.57
2018-04-15T17:53:48.868Z,7.67
2018-04-15T17:56:14.785Z,6.40
2018-04-15T17:58:40.711Z,6.03
2018-04-15T18:01:06.609Z,7.17
2018-04-15T18:03:32.563Z,5.87
2018-04-15T18:05:58.531Z,4.80
2018-04-15T18:08:24.402Z,5.77
2018-04-15T18:10:50.538Z,4.30
2018-04-15T18:13:16.454Z,5.10
2018-04-15T18:15:42.316Z,4.60
2018-04-15T18:18:08.325Z,5.20
2018-04-15T18:20:34.243Z,4.73
2018-04-15T18:23:00.192Z,5.53
2018-04-15T18:25:26.174Z,5.93
2018-04-15T18:27:52.039Z,5.80
2018-04-15T18:30:18.019Z,5.83
2018-04-15T18:32:43.924Z,6.50
2018-04-15T18:35:09.893Z,6.80
2018-04-15T18:37:35.762Z,7.03
2018-04-15T18:40:01.677Z,5.80
2018-04-15T18:42:27.645Z,7.30
2018-04-15T18:44:53.606Z,6.50
2018-04-15T18:47:19.588Z,5.87
2018-04-15T18:49:45.473Z,6.67
2018-04-15T18:52:11.336Z,6.93
2018-04-15T18:54:37.341Z,7.10
2018-04-15T18:57:03.242Z,6.80
2018-04-15T18:59:29.180Z,8.20
2018-04-15T19:01:55.104Z,12.03
2018-04-15T19:04:20.972Z,19.13
2018-04-15T19:06:46.951Z,21.17
2018-04-15T19:09:12.863Z,19.30
2018-04-15T19:11:38.804Z,21.43
2018-04-15T19:14:04.695Z,18.53
2018-04-15T19:16:30.672Z,20.07
2018-04-15T19:18:57.171Z,14.20
2018-04-15T19:21:23.249Z,13.40
2018-04-15T19:23:49.204Z,12.70
2018-04-15T19:26:15.094Z,12.20
2018-04-15T19:28:40.947Z,11.10
2018-04-15T19:31:07.047Z,8.67
2018-04-15T19:33:33.236Z,8.67
2018-04-15T19:35:59.145Z,9.20
2018-04-15T19:38:25.064Z,9.90
2018-04-15T19:40:50.934Z,9.70
2018-04-15T19:43:16.933Z,12.00
2018-04-15T19:45:42.865Z,12.37
2018-04-15T19:48:08.824Z,10.90
2018-04-15T19:50:34.721Z,10.63
2018-04-15T19:53:00.871Z,11.50
2018-04-15T19:55:27.670Z,13.47
2018-04-15T19:57:53.581Z,15.13
2018-04-15T20:00:19.572Z,15.20
2018-04-15T20:02:45.476Z,15.20
2018-04-15T20:05:11.364Z,14.97
2018-04-15T20:07:37.366Z,16.17
2018-04-15T20:10:03.297Z,15.97
2018-04-15T20:12:29.263Z,16.47
2018-04-15T20:14:55.409Z,15.80
2018-04-15T20:17:21.496Z,14.80
2018-04-15T20:19:47.553Z,13.10
2018-04-15T20:22:13.484Z,12.90
2018-04-15T20:24:43.864Z,13.10
2018-04-15T20:27:09.744Z,13.87
2018-04-15T20:29:35.638Z,13.17
2018-04-15T20:32:01.588Z,12.60
2018-04-15T20:34:27.494Z,11.83
2018-04-15T20:36:53.478Z,12.00
2018-04-15T20:39:19.388Z,12.20
2018-04-15T20:41:45.287Z,12.37
2018-04-15T20:44:11.352Z,12.30
2018-04-15T20:46:37.235Z,12.87
2018-04-15T20:49:03.189Z,11.83
2018-04-15T20:51:29.188Z,12.47
2018-04-15T20:53:55.059Z,10.60
2018-04-15T20:56:21.867Z,11.90
2018-04-15T20:58:47.790Z,10.47
2018-04-15T21:01:13.737Z,10.10
2018-04-15T21:03:39.624Z,10.40
2018-04-15T21:06:06.971Z,9.97
2018-04-15T21:08:32.923Z,10.00
2018-04-15T21:10:58.825Z,10.47
2018-04-15T21:13:24.783Z,10.53
2018-04-15T21:15:50.655Z,11.17
2018-04-15T21:18:16.551Z,10.43
2018-04-15T21:20:42.567Z,10.03
2018-04-15T21:23:08.419Z,10.17
2018-04-15T21:25:34.354Z,10.63
2018-04-15T21:28:00.293Z,10.67
2018-04-15T21:30:26.175Z,12.13
2018-04-15T21:32:52.145Z,11.50
2018-04-15T21:35:18.056Z,11.47
2018-04-15T21:37:43.995Z,12.07
2018-04-15T21:40:10.912Z,10.67
2018-04-15T21:42:36.837Z,11.50
2018-04-15T21:45:02.818Z,11.20
2018-04-15T21:47:28.707Z,10.63
2018-04-15T21:49:54.661Z,11.23
2018-04-15T21:52:20.556Z,10.20
2018-04-15T21:54:46.415Z,10.83
2018-04-15T21:57:12.439Z,11.47
2018-04-15T21:59:38.368Z,11.33
2018-04-15T22:02:04.320Z,11.00
2018-04-15T22:04:30.261Z,10.30
2018-04-15T22:06:56.124Z,11.27
2018-04-15T22:09:22.081Z,10.87
2018-04-15T22:12:00.371Z,11.33
2018-04-15T22:14:26.320Z,10.77
2018-04-15T22:16:52.210Z,11.70
2018-04-15T22:19:18.128Z,10.87
2018-04-15T22:21:44.100Z,10.63
2018-04-15T22:24:09.994Z,10.87
2018-04-15T22:26:35.994Z,10.60
2018-04-15T22:29:01.873Z,9.73
2018-04-15T22:31:27.815Z,11.60
2018-04-15T22:33:53.832Z,11.10
2018-04-15T22:36:19.726Z,11.83
2018-04-15T22:38:45.673Z,10.60
2018-04-15T22:41:11.602Z,11.23
2018-04-15T22:43:37.476Z,10.83
2018-04-15T22:46:03.453Z,12.73
2018-04-15T22:48:35.484Z,10.83
2018-04-15T22:51:01.410Z,11.10
2018-04-15T22:53:27.313Z,11.63
2018-04-15T22:55:54.327Z,11.30
2018-04-15T22:58:21.097Z,10.60
2018-04-15T23:00:46.963Z,11.37
2018-04-15T23:03:12.956Z,12.97
2018-04-15T23:05:38.836Z,12.97
2018-04-15T23:08:04.705Z,13.03
2018-04-15T23:10:30.712Z,12.77
2018-04-15T23:12:56.606Z,13.17
2018-04-15T23:15:22.568Z,13.87
2018-04-15T23:17:48.484Z,15.10
2018-04-15T23:20:14.363Z,14.50
2018-04-15T23:22:40.321Z,14.13
2018-04-15T23:25:06.623Z,15.23
2018-04-15T23:27:32.552Z,14.53
2018-04-15T23:29:58.445Z,14.63
2018-04-15T23:32:24.363Z,13.17
2018-04-15T23:34:50.299Z,14.00
2018-04-15T23:37:16.196Z,12.93
2018-04-15T23:39:42.175Z,12.53
2018-04-15T23:42:08.043Z,13.13
2018-04-15T23:44:33.934Z,14.17
2018-04-15T23:47:00.097Z,13.03
2018-04-15T23:49:26.016Z,14.23
2018-04-15T23:51:51.935Z,13.67
2018-04-15T23:54:17.859Z,14.30
2018-04-15T23:56:49.921Z,13.53
2018-04-15T23:59:15.859Z,14.40
